sensor_id;sensor_type;location;lat;lon;timestamp;pressure;altitude;pressure_sealevel;temperature;humidity
12949;BME280;6539;49.476;8.484;2022-09-14T00:01:33;99692.38;;;22.44;71.34
12949;BME280;6539;49.476;8.484;2022-09-14T00:04:13;99704.78;;;22.32;72.08
12949;BME280;6539;49.476;8.484;2022-09-14T00:06:40;99704.53;;;22.30;72.32
12949;BME280;6539;49.476;8.484;2022-09-14T00:09:18;99701.50;;;22.34;72.20
12949;BME280;6539;49.476;8.484;2022-09-14T00:11:45;99689.25;;;22.26;73.15
12949;BME280;6539;49.476;8.484;2022-09-14T00:14:13;99672.22;;;22.24;73.86
12949;BME280;6539;49.476;8.484;2022-09-14T00:16:41;99667.09;;;22.11;74.90
12949;BME280;6539;49.476;8.484;2022-09-14T00:19:24;99668.31;;;22.05;76.02
12949;BME280;6539;49.476;8.484;2022-09-14T00:21:54;99665.78;;;22.01;76.38
12949;BME280;6539;49.476;8.484;2022-09-14T00:24:25;99649.00;;;22.01;76.59
12949;BME280;6539;49.476;8.484;2022-09-14T00:26:52;99634.50;;;21.97;77.23
12949;BME280;6539;49.476;8.484;2022-09-14T00:29:22;99634.25;;;21.95;77.59
12949;BME280;6539;49.476;8.484;2022-09-14T00:31:48;99626.59;;;21.90;77.86
12949;BME280;6539;49.476;8.484;2022-09-14T00:34:18;99616.41;;;21.87;78.06
12949;BME280;6539;49.476;8.484;2022-09-14T00:36:49;99601.91;;;21.83;77.94
12949;BME280;6539;49.476;8.484;2022-09-14T00:39:21;99591.72;;;21.80;78.24
12949;BME280;6539;49.476;8.484;2022-09-14T00:41:51;99584.06;;;21.75;78.22
12949;BME280;6539;49.476;8.484;2022-09-14T00:46:45;99574.63;;;21.67;79.14
12949;BME280;6539;49.476;8.484;2022-09-14T00:52:20;99569.53;;;21.60;80.09
12949;BME280;6539;49.476;8.484;2022-09-14T00:54:54;99565.69;;;21.57;80.04
12949;BME280;6539;49.476;8.484;2022-09-14T00:57:27;99570.75;;;21.53;80.65
12949;BME280;6539;49.476;8.484;2022-09-14T00:59:56;99572.25;;;21.49;81.00
12949;BME280;6539;49.476;8.484;2022-09-14T01:02:24;99578.09;;;21.45;81.39
12949;BME280;6539;49.476;8.484;2022-09-14T01:04:51;99578.84;;;21.46;81.54
12949;BME280;6539;49.476;8.484;2022-09-14T01:07:32;99564.84;;;21.40;81.22
12949;BME280;6539;49.476;8.484;2022-09-14T01:13:20;99561.25;;;21.34;81.11
12949;BME280;6539;49.476;8.484;2022-09-14T01:16:18;99558.72;;;21.31;81.11
12949;BME280;6539;49.476;8.484;2022-09-14T01:18:55;99548.78;;;21.30;81.53
12949;BME280;6539;49.476;8.484;2022-09-14T01:21:32;99553.13;;;21.31;81.73
12949;BME280;6539;49.476;8.484;2022-09-14T01:32:10;99567.53;;;21.23;82.01
12949;BME280;6539;49.476;8.484;2022-09-14T01:37:30;99578.78;;;21.35;81.43
12949;BME280;6539;49.476;8.484;2022-09-14T01:40:15;99578.56;;;21.44;80.58
12949;BME280;6539;49.476;8.484;2022-09-14T01:42:49;99585.44;;;21.43;80.41
12949;BME280;6539;49.476;8.484;2022-09-14T01:45:18;99582.84;;;21.34;80.57
12949;BME280;6539;49.476;8.484;2022-09-14T01:47:59;99582.31;;;21.30;81.13
12949;BME280;6539;49.476;8.484;2022-09-14T01:50:41;99579.25;;;21.27;81.53
12949;BME280;6539;49.476;8.484;2022-09-14T01:53:18;99579.50;;;21.24;81.78
12949;BME280;6539;49.476;8.484;2022-09-14T01:58:44;99578.72;;;21.23;82.47
12949;BME280;6539;49.476;8.484;2022-09-14T02:01:19;99593.41;;;21.18;83.07
12949;BME280;6539;49.476;8.484;2022-09-14T02:03:56;99585.53;;;21.17;83.43
12949;BME280;6539;49.476;8.484;2022-09-14T02:06:44;99594.41;;;21.15;83.54
12949;BME280;6539;49.476;8.484;2022-09-14T02:09:18;99586.94;;;21.07;84.25
12949;BME280;6539;49.476;8.484;2022-09-14T02:11:49;99581.16;;;21.10;84.47
12949;BME280;6539;49.476;8.484;2022-09-14T02:14:19;99587.00;;;21.12;84.42
12949;BME280;6539;49.476;8.484;2022-09-14T02:16:45;99592.31;;;21.10;84.39
12949;BME280;6539;49.476;8.484;2022-09-14T02:19:14;99598.94;;;21.13;84.35
12949;BME280;6539;49.476;8.484;2022-09-14T02:21:42;99616.75;;;21.15;83.81
12949;BME280;6539;49.476;8.484;2022-09-14T02:24:09;99611.38;;;21.12;84.24
12949;BME280;6539;49.476;8.484;2022-09-14T02:26:36;99611.59;;;21.08;84.63
12949;BME280;6539;49.476;8.484;2022-09-14T02:29:05;99593.03;;;21.05;84.83
12949;BME280;6539;49.476;8.484;2022-09-14T02:32:03;99581.63;;;21.03;84.91
12949;BME280;6539;49.476;8.484;2022-09-14T02:38:39;99560.19;;;20.89;87.10
12949;BME280;6539;49.476;8.484;2022-09-14T02:41:29;99558.63;;;20.88;88.22
12949;BME280;6539;49.476;8.484;2022-09-14T02:44:28;99546.50;;;20.91;88.42
12949;BME280;6539;49.476;8.484;2022-09-14T02:47:22;99541.66;;;20.92;88.45
12949;BME280;6539;49.476;8.484;2022-09-14T02:53:17;99524.13;;;20.86;88.27
12949;BME280;6539;49.476;8.484;2022-09-14T02:56:02;99509.44;;;20.85;88.16
12949;BME280;6539;49.476;8.484;2022-09-14T02:58:40;99497.69;;;20.81;87.89
12949;BME280;6539;49.476;8.484;2022-09-14T03:01:14;99493.91;;;20.79;88.47
12949;BME280;6539;49.476;8.484;2022-09-14T03:03:41;99482.44;;;20.77;88.45
12949;BME280;6539;49.476;8.484;2022-09-14T03:06:07;99496.41;;;20.77;88.68
12949;BME280;6539;49.476;8.484;2022-09-14T03:08:34;99501.25;;;20.76;88.96
12949;BME280;6539;49.476;8.484;2022-09-14T03:11:02;99500.44;;;20.70;89.06
12949;BME280;6539;49.476;8.484;2022-09-14T03:13:28;99491.78;;;20.68;89.19
12949;BME280;6539;49.476;8.484;2022-09-14T03:15:54;99496.38;;;20.71;89.41
12949;BME280;6539;49.476;8.484;2022-09-14T03:18:20;99484.44;;;20.71;89.25
12949;BME280;6539;49.476;8.484;2022-09-14T03:20:45;99483.19;;;20.72;89.30
12949;BME280;6539;49.476;8.484;2022-09-14T03:23:12;99472.81;;;20.72;89.53
12949;BME280;6539;49.476;8.484;2022-09-14T03:25:46;99472.81;;;20.72;89.55
12949;BME280;6539;49.476;8.484;2022-09-14T03:28:12;99468.97;;;20.70;89.69
12949;BME280;6539;49.476;8.484;2022-09-14T03:30:42;99462.88;;;20.66;90.06
12949;BME280;6539;49.476;8.484;2022-09-14T03:33:10;99476.28;;;20.62;90.48
12949;BME280;6539;49.476;8.484;2022-09-14T03:35:36;99484.41;;;20.65;90.24
12949;BME280;6539;49.476;8.484;2022-09-14T03:38:02;99483.66;;;20.65;90.22
12949;BME280;6539;49.476;8.484;2022-09-14T03:40:28;99494.31;;;20.66;90.05
12949;BME280;6539;49.476;8.484;2022-09-14T03:42:56;99484.72;;;20.73;90.20
12949;BME280;6539;49.476;8.484;2022-09-14T03:45:22;99487.22;;;20.71;90.10
12949;BME280;6539;49.476;8.484;2022-09-14T03:47:49;99486.97;;;20.69;90.40
12949;BME280;6539;49.476;8.484;2022-09-14T03:50:18;99478.06;;;20.65;89.85
12949;BME280;6539;49.476;8.484;2022-09-14T03:52:49;99474.41;;;20.53;90.55
12949;BME280;6539;49.476;8.484;2022-09-14T03:55:15;99489.88;;;20.48;91.52
12949;BME280;6539;49.476;8.484;2022-09-14T03:57:43;99499.50;;;20.47;92.11
12949;BME280;6539;49.476;8.484;2022-09-14T04:00:10;99499.03;;;20.55;92.18
12949;BME280;6539;49.476;8.484;2022-09-14T04:02:39;99500.19;;;20.42;94.25
12949;BME280;6539;49.476;8.484;2022-09-14T04:05:10;99488.50;;;20.38;94.63
12949;BME280;6539;49.476;8.484;2022-09-14T04:07:40;99479.19;;;20.47;94.13
12949;BME280;6539;49.476;8.484;2022-09-14T04:10:08;99482.59;;;20.62;91.68
12949;BME280;6539;49.476;8.484;2022-09-14T04:12:36;99479.38;;;20.69;91.74
12949;BME280;6539;49.476;8.484;2022-09-14T04:15:05;99482.34;;;20.60;91.39
12949;BME280;6539;49.476;8.484;2022-09-14T04:17:36;99471.44;;;20.62;91.83
12949;BME280;6539;49.476;8.484;2022-09-14T04:20:02;99476.75;;;20.60;92.32
12949;BME280;6539;49.476;8.484;2022-09-14T04:22:30;99474.25;;;20.62;93.19
12949;BME280;6539;49.476;8.484;2022-09-14T04:24:58;99481.63;;;20.65;92.60
12949;BME280;6539;49.476;8.484;2022-09-14T04:27:24;99484.44;;;20.71;91.76
12949;BME280;6539;49.476;8.484;2022-09-14T04:29:55;99486.00;;;20.77;90.95
12949;BME280;6539;49.476;8.484;2022-09-14T04:32:21;99481.00;;;20.87;89.20
12949;BME280;6539;49.476;8.484;2022-09-14T04:34:48;99478.22;;;20.87;89.34
12949;BME280;6539;49.476;8.484;2022-09-14T04:37:17;99470.38;;;20.85;89.32
12949;BME280;6539;49.476;8.484;2022-09-14T04:39:43;99473.38;;;20.82;89.02
12949;BME280;6539;49.476;8.484;2022-09-14T04:42:08;99469.06;;;20.81;89.44
12949;BME280;6539;49.476;8.484;2022-09-14T04:44:34;99455.31;;;20.77;90.52
12949;BME280;6539;49.476;8.484;2022-09-14T04:47:00;99459.13;;;20.74;89.98
12949;BME280;6539;49.476;8.484;2022-09-14T04:49:28;99464.81;;;20.54;91.35
12949;BME280;6539;49.476;8.484;2022-09-14T04:51:54;99463.56;;;20.55;91.74
12949;BME280;6539;49.476;8.484;2022-09-14T04:54:19;99460.34;;;20.68;90.81
12949;BME280;6539;49.476;8.484;2022-09-14T04:56:45;99475.66;;;20.83;89.28
12949;BME280;6539;49.476;8.484;2022-09-14T04:59:14;99482.84;;;20.95;88.36
12949;BME280;6539;49.476;8.484;2022-09-14T05:01:45;99483.06;;;20.92;89.06
12949;BME280;6539;49.476;8.484;2022-09-14T05:04:17;99485.25;;;21.13;88.42
12949;BME280;6539;49.476;8.484;2022-09-14T05:06:45;99491.72;;;21.36;85.48
12949;BME280;6539;49.476;8.484;2022-09-14T05:09:16;99484.63;;;21.46;84.87
12949;BME280;6539;49.476;8.484;2022-09-14T05:11:42;99489.50;;;21.57;83.03
12949;BME280;6539;49.476;8.484;2022-09-14T05:14:12;99501.22;;;21.72;81.73
12949;BME280;6539;49.476;8.484;2022-09-14T05:16:40;99501.78;;;21.76;81.35
12949;BME280;6539;49.476;8.484;2022-09-14T05:19:12;99491.34;;;21.71;81.56
12949;BME280;6539;49.476;8.484;2022-09-14T05:21:38;99491.06;;;21.63;81.44
12949;BME280;6539;49.476;8.484;2022-09-14T05:24:13;99475.31;;;21.66;81.80
12949;BME280;6539;49.476;8.484;2022-09-14T05:26:40;99486.00;;;21.73;81.21
12949;BME280;6539;49.476;8.484;2022-09-14T05:29:11;99482.44;;;21.72;80.73
12949;BME280;6539;49.476;8.484;2022-09-14T05:31:37;99476.25;;;21.41;82.13
12949;BME280;6539;49.476;8.484;2022-09-14T05:34:02;99477.69;;;21.19;84.06
12949;BME280;6539;49.476;8.484;2022-09-14T05:36:28;99492.31;;;21.03;85.08
12949;BME280;6539;49.476;8.484;2022-09-14T05:38:54;99494.19;;;20.86;86.42
12949;BME280;6539;49.476;8.484;2022-09-14T05:41:22;99491.22;;;20.59;89.08
12949;BME280;6539;49.476;8.484;2022-09-14T05:43:48;99488.09;;;20.51;91.14
12949;BME280;6539;49.476;8.484;2022-09-14T05:46:20;99485.03;;;20.49;91.52
12949;BME280;6539;49.476;8.484;2022-09-14T05:48:47;99488.06;;;20.45;92.24
12949;BME280;6539;49.476;8.484;2022-09-14T05:51:25;99484.13;;;20.32;92.89
12949;BME280;6539;49.476;8.484;2022-09-14T05:53:58;99478.78;;;20.28;93.61
12949;BME280;6539;49.476;8.484;2022-09-14T05:56:28;99460.00;;;20.23;93.06
12949;BME280;6539;49.476;8.484;2022-09-14T05:58:56;99457.41;;;20.20;92.89
12949;BME280;6539;49.476;8.484;2022-09-14T06:01:30;99456.94;;;20.21;94.07
12949;BME280;6539;49.476;8.484;2022-09-14T06:04:00;99445.28;;;20.23;93.98
12949;BME280;6539;49.476;8.484;2022-09-14T06:06:28;99461.03;;;20.26;94.62
12949;BME280;6539;49.476;8.484;2022-09-14T06:08:57;99461.03;;;20.26;94.62
12949;BME280;6539;49.476;8.484;2022-09-14T06:11:28;99468.84;;;20.22;94.16
12949;BME280;6539;49.476;8.484;2022-09-14T06:13:55;99470.53;;;20.14;94.04
12949;BME280;6539;49.476;8.484;2022-09-14T06:16:26;99474.06;;;20.14;94.33
12949;BME280;6539;49.476;8.484;2022-09-14T06:18:55;99476.38;;;20.16;94.32
12949;BME280;6539;49.476;8.484;2022-09-14T06:21:33;99477.31;;;20.07;94.60
12949;BME280;6539;49.476;8.484;2022-09-14T06:23:59;99480.81;;;20.02;95.34
12949;BME280;6539;49.476;8.484;2022-09-14T06:26:27;99487.41;;;20.05;95.36
12949;BME280;6539;49.476;8.484;2022-09-14T06:28:53;99487.47;;;20.10;95.43
12949;BME280;6539;49.476;8.484;2022-09-14T06:31:22;99480.41;;;20.15;95.60
12949;BME280;6539;49.476;8.484;2022-09-14T06:33:50;99488.63;;;20.24;95.61
12949;BME280;6539;49.476;8.484;2022-09-14T06:36:26;99493.25;;;20.27;95.31
12949;BME280;6539;49.476;8.484;2022-09-14T06:38:55;99491.97;;;20.28;94.96
12949;BME280;6539;49.476;8.484;2022-09-14T06:41:26;99479.25;;;20.21;94.88
12949;BME280;6539;49.476;8.484;2022-09-14T06:43:59;99479.44;;;20.18;94.28
12949;BME280;6539;49.476;8.484;2022-09-14T06:46:30;99472.97;;;20.26;94.60
12949;BME280;6539;49.476;8.484;2022-09-14T06:49:01;99474.75;;;20.29;94.54
12949;BME280;6539;49.476;8.484;2022-09-14T06:51:36;99475.34;;;20.39;94.25
12949;BME280;6539;49.476;8.484;2022-09-14T06:54:04;99473.31;;;20.39;93.93
12949;BME280;6539;49.476;8.484;2022-09-14T06:56:41;99477.69;;;20.46;93.69
12949;BME280;6539;49.476;8.484;2022-09-14T06:59:13;99475.16;;;20.48;93.28
12949;BME280;6539;49.476;8.484;2022-09-14T07:01:40;99480.50;;;20.51;92.69
12949;BME280;6539;49.476;8.484;2022-09-14T07:04:12;99470.66;;;20.56;92.07
12949;BME280;6539;49.476;8.484;2022-09-14T07:06:45;99471.19;;;20.60;91.41
12949;BME280;6539;49.476;8.484;2022-09-14T07:09:16;99462.03;;;20.54;91.12
12949;BME280;6539;49.476;8.484;2022-09-14T07:11:44;99457.94;;;20.49;91.42
12949;BME280;6539;49.476;8.484;2022-09-14T07:14:13;99477.16;;;20.42;91.81
12949;BME280;6539;49.476;8.484;2022-09-14T07:16:42;99483.00;;;20.44;92.33
12949;BME280;6539;49.476;8.484;2022-09-14T07:19:13;99483.00;;;20.44;92.79
12949;BME280;6539;49.476;8.484;2022-09-14T07:21:46;99479.44;;;20.43;93.13
12949;BME280;6539;49.476;8.484;2022-09-14T07:24:14;99481.72;;;20.45;92.97
12949;BME280;6539;49.476;8.484;2022-09-14T07:26:45;99476.38;;;20.41;92.68
12949;BME280;6539;49.476;8.484;2022-09-14T07:29:19;99468.28;;;20.43;93.13
12949;BME280;6539;49.476;8.484;2022-09-14T07:31:51;99471.09;;;20.49;92.49
12949;BME280;6539;49.476;8.484;2022-09-14T07:34:17;99462.03;;;20.54;92.17
12949;BME280;6539;49.476;8.484;2022-09-14T07:36:43;99481.00;;;20.50;91.58
12949;BME280;6539;49.476;8.484;2022-09-14T07:39:15;99481.72;;;20.45;92.36
12949;BME280;6539;49.476;8.484;2022-09-14T07:41:42;99491.34;;;20.44;93.11
12949;BME280;6539;49.476;8.484;2022-09-14T07:44:15;99487.53;;;20.41;92.41
12949;BME280;6539;49.476;8.484;2022-09-14T07:46:45;99479.44;;;20.43;92.71
12949;BME280;6539;49.476;8.484;2022-09-14T07:49:15;99481.41;;;20.37;92.73
12949;BME280;6539;49.476;8.484;2022-09-14T07:51:42;99475.16;;;20.48;92.68
12949;BME280;6539;49.476;8.484;2022-09-14T07:54:13;99491.44;;;20.55;92.61
12949;BME280;6539;49.476;8.484;2022-09-14T07:56:39;99500.88;;;20.63;91.94
12949;BME280;6539;49.476;8.484;2022-09-14T07:59:05;99510.56;;;20.68;91.42
12949;BME280;6539;49.476;8.484;2022-09-14T08:01:31;99509.06;;;20.72;91.44
12949;BME280;6539;49.476;8.484;2022-09-14T08:04:01;99515.66;;;20.75;91.08
12949;BME280;6539;49.476;8.484;2022-09-14T08:06:30;99516.69;;;20.77;89.34
12949;BME280;6539;49.476;8.484;2022-09-14T08:08:59;99509.88;;;20.78;89.77
12949;BME280;6539;49.476;8.484;2022-09-14T08:11:33;99507.09;;;20.78;89.55
12949;BME280;6539;49.476;8.484;2022-09-14T08:14:06;99513.72;;;20.86;89.42
12949;BME280;6539;49.476;8.484;2022-09-14T08:16:34;99532.28;;;20.89;89.31
12949;BME280;6539;49.476;8.484;2022-09-14T08:19:11;99521.66;;;20.93;89.68
12949;BME280;6539;49.476;8.484;2022-09-14T08:21:37;99530.81;;;20.99;90.38
12949;BME280;6539;49.476;8.484;2022-09-14T08:24:05;99532.47;;;21.17;90.70
12949;BME280;6539;49.476;8.484;2022-09-14T08:26:33;99542.91;;;21.22;88.93
12949;BME280;6539;49.476;8.484;2022-09-14T08:29:02;99554.31;;;21.18;89.12
12949;BME280;6539;49.476;8.484;2022-09-14T08:31:36;99550.00;;;21.17;88.74
12949;BME280;6539;49.476;8.484;2022-09-14T08:34:08;99557.28;;;21.09;88.74
12949;BME280;6539;49.476;8.484;2022-09-14T08:36:37;99551.38;;;21.02;89.64
12949;BME280;6539;49.476;8.484;2022-09-14T08:39:06;99546.09;;;21.04;89.33
12949;BME280;6539;49.476;8.484;2022-09-14T08:41:50;99557.53;;;21.06;90.09
12949;BME280;6539;49.476;8.484;2022-09-14T08:44:29;99566.94;;;21.08;89.75
12949;BME280;6539;49.476;8.484;2022-09-14T08:47:04;99570.44;;;21.03;89.37
12949;BME280;6539;49.476;8.484;2022-09-14T08:49:47;99568.84;;;20.97;90.44
12949;BME280;6539;49.476;8.484;2022-09-14T08:52:27;99569.38;;;21.01;90.10
12949;BME280;6539;49.476;8.484;2022-09-14T08:55:01;99564.56;;;21.01;90.08
12949;BME280;6539;49.476;8.484;2022-09-14T09:00:05;99554.38;;;20.98;88.77
12949;BME280;6539;49.476;8.484;2022-09-14T09:08:24;99564.16;;;21.08;90.05
12949;BME280;6539;49.476;8.484;2022-09-14T09:10:53;99568.25;;;21.13;89.60
12949;BME280;6539;49.476;8.484;2022-09-14T09:13:24;99575.31;;;21.08;89.89
12949;BME280;6539;49.476;8.484;2022-09-14T09:15:57;99565.63;;;21.04;90.05
12949;BME280;6539;49.476;8.484;2022-09-14T09:18:43;99567.16;;;21.05;90.94
12949;BME280;6539;49.476;8.484;2022-09-14T09:21:37;99567.09;;;20.99;91.05
12949;BME280;6539;49.476;8.484;2022-09-14T09:24:35;99563.88;;;21.06;91.41
12949;BME280;6539;49.476;8.484;2022-09-14T09:27:12;99560.09;;;21.09;90.95
12949;BME280;6539;49.476;8.484;2022-09-14T09:29:41;99568.97;;;21.13;91.29
12949;BME280;6539;49.476;8.484;2022-09-14T09:32:16;99552.75;;;21.12;91.27
12949;BME280;6539;49.476;8.484;2022-09-14T09:34:42;99543.88;;;21.13;91.70
12949;BME280;6539;49.476;8.484;2022-09-14T09:37:17;99533.81;;;21.27;91.70
12949;BME280;6539;49.476;8.484;2022-09-14T09:39:47;99547.41;;;21.56;92.31
12949;BME280;6539;49.476;8.484;2022-09-14T09:42:24;99529.47;;;21.79;90.49
12949;BME280;6539;49.476;8.484;2022-09-14T09:47:32;99515.13;;;22.86;89.65
12949;BME280;6539;49.476;8.484;2022-09-14T09:50:03;99510.97;;;23.48;83.72
12949;BME280;6539;49.476;8.484;2022-09-14T09:52:30;99491.75;;;24.15;80.77
12949;BME280;6539;49.476;8.484;2022-09-14T09:54:58;99489.00;;;24.39;74.94
12949;BME280;6539;49.476;8.484;2022-09-14T09:57:34;99497.25;;;24.32;73.40
12949;BME280;6539;49.476;8.484;2022-09-14T10:02:39;99508.63;;;24.04;73.38
12949;BME280;6539;49.476;8.484;2022-09-14T10:05:21;99504.56;;;23.99;74.19
12949;BME280;6539;49.476;8.484;2022-09-14T10:07:58;99503.25;;;24.11;75.61
12949;BME280;6539;49.476;8.484;2022-09-14T10:13:02;99479.63;;;24.37;75.55
12949;BME280;6539;49.476;8.484;2022-09-14T10:15:32;99479.53;;;24.72;74.93
12949;BME280;6539;49.476;8.484;2022-09-14T10:18:19;99475.13;;;25.06;72.27
12949;BME280;6539;49.476;8.484;2022-09-14T10:21:06;99472.97;;;25.42;69.78
12949;BME280;6539;49.476;8.484;2022-09-14T10:23:36;99466.16;;;25.56;68.94
12949;BME280;6539;49.476;8.484;2022-09-14T10:28:46;99446.47;;;25.75;67.29
12949;BME280;6539;49.476;8.484;2022-09-14T10:31:21;99445.63;;;25.80;68.39
12949;BME280;6539;49.476;8.484;2022-09-14T10:33:59;99445.91;;;25.95;68.42
12949;BME280;6539;49.476;8.484;2022-09-14T10:36:42;99444.63;;;25.96;66.64
12949;BME280;6539;49.476;8.484;2022-09-14T10:39:24;99439.53;;;26.13;66.75
12949;BME280;6539;49.476;8.484;2022-09-14T10:42:23;99430.25;;;26.18;66.73
12949;BME280;6539;49.476;8.484;2022-09-14T10:45:07;99420.44;;;26.37;66.22
12949;BME280;6539;49.476;8.484;2022-09-14T10:53:42;99403.97;;;26.28;65.79
12949;BME280;6539;49.476;8.484;2022-09-14T11:07:14;99368.69;;;26.27;66.95
12949;BME280;6539;49.476;8.484;2022-09-14T11:09:59;99375.47;;;26.19;67.12
12949;BME280;6539;49.476;8.484;2022-09-14T11:18:16;99377.47;;;26.37;66.82
12949;BME280;6539;49.476;8.484;2022-09-14T11:26:03;99360.69;;;26.44;66.52
12949;BME280;6539;49.476;8.484;2022-09-14T11:28:54;99348.44;;;26.42;66.75
12949;BME280;6539;49.476;8.484;2022-09-14T11:31:41;99352.44;;;26.33;66.27
12949;BME280;6539;49.476;8.484;2022-09-14T11:34:30;99352.13;;;26.24;67.26
12949;BME280;6539;49.476;8.484;2022-09-14T11:37:16;99359.38;;;26.19;67.67
12949;BME280;6539;49.476;8.484;2022-09-14T11:43:03;99369.66;;;25.98;68.42
12949;BME280;6539;49.476;8.484;2022-09-14T11:45:41;99374.81;;;25.81;69.11
12949;BME280;6539;49.476;8.484;2022-09-14T11:48:35;99369.13;;;25.68;69.83
12949;BME280;6539;49.476;8.484;2022-09-14T11:51:22;99369.41;;;25.64;70.37
12949;BME280;6539;49.476;8.484;2022-09-14T11:53:51;99362.34;;;25.58;70.75
12949;BME280;6539;49.476;8.484;2022-09-14T11:56:33;99361.31;;;25.42;71.55
12949;BME280;6539;49.476;8.484;2022-09-14T11:59:05;99350.66;;;25.35;72.46
12949;BME280;6539;49.476;8.484;2022-09-14T12:01:38;99352.56;;;25.27;73.11
12949;BME280;6539;49.476;8.484;2022-09-14T12:04:07;99341.94;;;25.20;73.50
12949;BME280;6539;49.476;8.484;2022-09-14T12:17:24;99351.94;;;24.97;75.53
12949;BME280;6539;49.476;8.484;2022-09-14T12:19:54;99363.06;;;24.84;75.95
12949;BME280;6539;49.476;8.484;2022-09-14T12:22:36;99357.81;;;24.75;76.63
12949;BME280;6539;49.476;8.484;2022-09-14T12:25:20;99370.13;;;24.66;77.25
12949;BME280;6539;49.476;8.484;2022-09-14T12:27:49;99364.78;;;24.63;77.85
12949;BME280;6539;49.476;8.484;2022-09-14T12:56:40;99372.00;;;24.04;84.66
12949;BME280;6539;49.476;8.484;2022-09-14T12:59:23;99383.47;;;24.06;84.77
12949;BME280;6539;49.476;8.484;2022-09-14T13:04:46;99352.09;;;24.08;85.25
12949;BME280;6539;49.476;8.484;2022-09-14T13:07:18;99339.84;;;24.11;85.84
12949;BME280;6539;49.476;8.484;2022-09-14T13:09:52;99344.69;;;24.10;86.18
12949;BME280;6539;49.476;8.484;2022-09-14T13:12:35;99336.72;;;24.14;85.98
12949;BME280;6539;49.476;8.484;2022-09-14T13:15:14;99333.69;;;24.12;86.23
12949;BME280;6539;49.476;8.484;2022-09-14T13:20:58;99322.50;;;24.07;85.72
12949;BME280;6539;49.476;8.484;2022-09-14T13:23:47;99324.56;;;24.06;85.09
12949;BME280;6539;49.476;8.484;2022-09-14T13:26:27;99328.66;;;24.05;84.83
12949;BME280;6539;49.476;8.484;2022-09-14T13:28:58;99334.25;;;24.05;84.06
12949;BME280;6539;49.476;8.484;2022-09-14T13:31:36;99335.25;;;24.02;83.71
12949;BME280;6539;49.476;8.484;2022-09-14T13:34:05;99335.03;;;24.06;81.43
12949;BME280;6539;49.476;8.484;2022-09-14T13:36:42;99333.50;;;24.05;80.71
12949;BME280;6539;49.476;8.484;2022-09-14T13:39:26;99331.72;;;24.02;80.28
12949;BME280;6539;49.476;8.484;2022-09-14T13:41:58;99333.28;;;23.97;80.31
12949;BME280;6539;49.476;8.484;2022-09-14T13:44:40;99328.91;;;24.02;79.63
12949;BME280;6539;49.476;8.484;2022-09-14T13:47:18;99331.03;;;23.96;79.77
12949;BME280;6539;49.476;8.484;2022-09-14T13:49:47;99340.16;;;23.96;79.66
12949;BME280;6539;49.476;8.484;2022-09-14T13:52:25;99348.88;;;23.93;79.67
12949;BME280;6539;49.476;8.484;2022-09-14T13:58:21;99354.78;;;23.48;82.78
12949;BME280;6539;49.476;8.484;2022-09-14T14:03:33;99357.97;;;23.23;84.39
12949;BME280;6539;49.476;8.484;2022-09-14T14:08:53;99361.13;;;23.03;86.11
12949;BME280;6539;49.476;8.484;2022-09-14T14:11:52;99361.69;;;22.90;86.79
12949;BME280;6539;49.476;8.484;2022-09-14T14:14:23;99351.81;;;22.84;87.48
12949;BME280;6539;49.476;8.484;2022-09-14T14:19:48;99346.50;;;22.74;87.78
12949;BME280;6539;49.476;8.484;2022-09-14T14:22:16;99352.81;;;22.81;86.70
12949;BME280;6539;49.476;8.484;2022-09-14T14:24:45;99347.75;;;22.73;87.04
12949;BME280;6539;49.476;8.484;2022-09-14T14:27:38;99332.25;;;22.67;87.39
12949;BME280;6539;49.476;8.484;2022-09-14T14:30:19;99336.06;;;22.69;86.58
12949;BME280;6539;49.476;8.484;2022-09-14T14:32:53;99335.53;;;22.77;85.71
12949;BME280;6539;49.476;8.484;2022-09-14T14:35:32;99329.69;;;22.74;84.43
12949;BME280;6539;49.476;8.484;2022-09-14T14:37:58;99327.91;;;22.71;84.60
12949;BME280;6539;49.476;8.484;2022-09-14T14:40:25;99327.66;;;22.69;85.26
12949;BME280;6539;49.476;8.484;2022-09-14T14:42:53;99317.53;;;22.66;86.10
12949;BME280;6539;49.476;8.484;2022-09-14T14:45:26;99317.25;;;22.64;86.36
12949;BME280;6539;49.476;8.484;2022-09-14T14:47:55;99320.84;;;22.59;85.84
12949;BME280;6539;49.476;8.484;2022-09-14T14:52:51;99305.28;;;22.58;83.73
12949;BME280;6539;49.476;8.484;2022-09-14T14:55:19;99312.19;;;22.57;83.76
12949;BME280;6539;49.476;8.484;2022-09-14T14:57:51;99308.63;;;22.51;84.09
12949;BME280;6539;49.476;8.484;2022-09-14T15:00:21;99307.88;;;22.51;83.70
12949;BME280;6539;49.476;8.484;2022-09-14T15:02:54;99301.50;;;22.50;83.43
12949;BME280;6539;49.476;8.484;2022-09-14T15:05:25;99312.97;;;22.47;83.27
12949;BME280;6539;49.476;8.484;2022-09-14T15:07:54;99312.72;;;22.39;84.13
12949;BME280;6539;49.476;8.484;2022-09-14T15:10:24;99302.59;;;22.31;84.35
12949;BME280;6539;49.476;8.484;2022-09-14T15:12:50;99300.06;;;22.27;83.76
12949;BME280;6539;49.476;8.484;2022-09-14T15:15:24;99286.34;;;22.18;84.21
12949;BME280;6539;49.476;8.484;2022-09-14T15:17:51;99286.34;;;22.18;83.96
12949;BME280;6539;49.476;8.484;2022-09-14T15:20:20;99284.56;;;22.15;83.47
12949;BME280;6539;49.476;8.484;2022-09-14T15:22:52;99291.44;;;22.14;82.89
12949;BME280;6539;49.476;8.484;2022-09-14T15:25:21;99273.13;;;22.13;82.88
12949;BME280;6539;49.476;8.484;2022-09-14T15:27:47;99253.06;;;22.09;82.69
12949;BME280;6539;49.476;8.484;2022-09-14T15:30:14;99257.91;;;22.14;82.03
12949;BME280;6539;49.476;8.484;2022-09-14T15:32:42;99259.44;;;22.10;81.28
12949;BME280;6539;49.476;8.484;2022-09-14T15:35:13;99261.22;;;22.02;81.64
12949;BME280;6539;49.476;8.484;2022-09-14T15:37:39;99277.47;;;21.97;81.81
12949;BME280;6539;49.476;8.484;2022-09-14T15:40:09;99273.44;;;21.93;82.33
12949;BME280;6539;49.476;8.484;2022-09-14T15:42:38;99267.56;;;21.96;81.68
12949;BME280;6539;49.476;8.484;2022-09-14T15:45:04;99262.75;;;21.91;82.17
12949;BME280;6539;49.476;8.484;2022-09-14T15:47:33;99259.97;;;21.86;82.36
12949;BME280;6539;49.476;8.484;2022-09-14T15:49:59;99271.13;;;21.91;81.80
12949;BME280;6539;49.476;8.484;2022-09-14T15:52:24;99265.28;;;21.89;81.78
12949;BME280;6539;49.476;8.484;2022-09-14T15:54:50;99265.31;;;21.84;82.09